Time;durP1;ratioP1;P1;durP2;ratioP2;P2;SDS_P1;SDS_P2;PMS_P1;PMS_P2;Temp;Humidity;BMP_temperature;BMP_pressure;BME280_temperature;BME280_humidity;BME280_pressure;Samples;Min_cycle;Max_cycle;Signal;HPM_P1;HPM_P2
2023/07/22 00:00:29;;;;;;;7.20;5.10;;;;;;;17.58;79.29;96183.30;108315;1272;22519;-76
2023/07/22 00:03:20;;;;;;;6.20;5.20;;;;;;;17.60;79.41;96191.51;108325;1278;23073;-76
2023/07/22 00:06:02;;;;;;;7.20;5.40;;;;;;;17.60;79.32;96193.64;108287;1278;24338;-76
2023/07/22 00:08:35;;;;;;;5.60;4.70;;;;;;;17.59;79.30;96199.06;108243;1272;23190;-76
2023/07/22 00:11:06;;;;;;;7.70;4.80;;;;;;;17.60;79.42;96203.77;108252;1279;22535;-76
2023/07/22 00:13:37;;;;;;;6.80;5.30;;;;;;;17.62;79.61;96217.23;108290;1278;22526;-76
2023/07/22 00:16:08;;;;;;;7.10;5.10;;;;;;;17.62;79.58;96221.15;108317;1278;25419;-76
2023/07/22 00:18:42;;;;;;;5.70;4.80;;;;;;;17.63;79.73;96223.16;108354;1278;22557;-76
2023/07/22 00:21:16;;;;;;;6.60;5.10;;;;;;;17.62;79.64;96226.20;108275;1278;23246;-76
2023/07/22 00:23:48;;;;;;;6.70;5.20;;;;;;;17.59;79.72;96234.41;108309;1276;22547;-76
2023/07/22 00:26:21;;;;;;;5.90;4.80;;;;;;;17.53;79.88;96237.75;108284;1275;26484;-76
2023/07/22 00:28:54;;;;;;;6.30;4.80;;;;;;;17.49;80.17;96237.30;108259;1279;22554;-76
2023/07/22 00:31:25;;;;;;;6.80;5.10;;;;;;;17.42;80.31;96236.29;108296;1278;22538;-76
2023/07/22 00:33:56;;;;;;;7.10;5.20;;;;;;;17.32;80.52;96240.15;108305;1279;22539;-76
2023/07/22 00:36:28;;;;;;;6.30;4.80;;;;;;;17.24;81.09;96241.73;108294;1278;22637;-76
2023/07/22 00:39:01;;;;;;;8.20;5.40;;;;;;;17.11;81.22;96240.50;108423;1279;22527;-76
2023/07/22 00:41:35;;;;;;;6.90;5.20;;;;;;;16.99;81.88;96247.02;108280;1275;22539;-76
2023/07/22 00:44:06;;;;;;;6.90;5.70;;;;;;;16.94;82.36;96239.27;108314;1275;25360;-76
2023/07/22 00:46:38;;;;;;;7.60;6.00;;;;;;;16.89;82.70;96240.31;108295;1279;24337;-75
2023/07/22 00:49:13;;;;;;;7.60;5.80;;;;;;;16.87;82.85;96239.09;108289;1278;22530;-76
2023/07/22 00:51:44;;;;;;;8.20;6.10;;;;;;;16.79;82.92;96239.12;108298;1279;22543;-76
2023/07/22 00:54:16;;;;;;;6.50;5.50;;;;;;;16.64;83.05;96234.56;108311;1278;22532;-75
2023/07/22 00:56:50;;;;;;;7.20;5.80;;;;;;;16.49;83.47;96233.83;108305;1275;22529;-76
2023/07/22 00:59:21;;;;;;;5.80;4.90;;;;;;;16.43;84.09;96230.55;108310;1279;22560;-76
2023/07/22 01:01:55;;;;;;;5.30;4.40;;;;;;;16.46;84.39;96222.03;108283;1275;22521;-76
2023/07/22 01:04:29;;;;;;;7.00;5.50;;;;;;;16.47;84.33;96215.27;108303;1278;22526;-76
2023/07/22 01:07:02;;;;;;;6.50;5.30;;;;;;;16.43;84.30;96207.39;108307;1279;22576;-76
2023/07/22 01:09:38;;;;;;;6.10;5.50;;;;;;;16.45;84.43;96202.95;108296;1279;22527;-75
2023/07/22 01:12:12;;;;;;;6.70;4.60;;;;;;;16.40;84.21;96201.86;108264;1275;23779;-76
2023/07/22 01:14:52;;;;;;;5.50;4.90;;;;;;;16.28;84.28;96207.92;108291;1279;24219;-76
2023/07/22 01:17:23;;;;;;;5.80;4.90;;;;;;;16.19;84.62;96202.91;108289;1279;22535;-76
2023/07/22 01:19:56;;;;;;;7.10;5.40;;;;;;;16.18;84.94;96200.08;108317;1275;22539;-76
2023/07/22 01:22:32;;;;;;;5.10;4.50;;;;;;;16.23;85.23;96191.51;108315;1279;22578;-76
2023/07/22 01:25:04;;;;;;;6.30;4.30;;;;;;;16.24;85.03;96194.67;108320;1279;25256;-76
2023/07/22 01:27:37;;;;;;;7.50;5.20;;;;;;;16.22;85.18;96197.75;108324;1279;22511;-76
2023/07/22 01:30:12;;;;;;;5.80;4.50;;;;;;;16.23;85.39;96188.33;108301;1279;23965;-76
2023/07/22 01:32:50;;;;;;;5.30;4.30;;;;;;;16.23;85.32;96173.39;108272;1279;24360;-76
2023/07/22 01:35:21;;;;;;;4.80;4.30;;;;;;;16.21;85.59;96169.97;108297;1279;22514;-76
2023/07/22 01:37:52;;;;;;;5.60;4.30;;;;;;;16.15;85.52;96166.21;108312;1273;22954;-75
2023/07/22 01:40:26;;;;;;;5.40;4.10;;;;;;;16.08;85.63;96159.00;108294;1275;22531;-76
2023/07/22 01:42:57;;;;;;;5.40;4.20;;;;;;;16.02;85.99;96166.57;108314;1279;22531;-76
2023/07/22 01:45:28;;;;;;;5.50;4.70;;;;;;;15.92;86.12;96171.33;108291;1279;22570;-76
2023/07/22 01:48:02;;;;;;;5.90;4.10;;;;;;;15.87;86.46;96170.02;108293;1275;22547;-76
2023/07/22 01:50:33;;;;;;;6.00;3.80;;;;;;;15.84;86.47;96172.55;108301;1279;22551;-76
2023/07/22 01:53:05;;;;;;;4.90;4.30;;;;;;;15.80;86.75;96168.47;108299;1279;24708;-76
2023/07/22 01:55:36;;;;;;;6.00;4.10;;;;;;;15.76;86.84;96162.71;108304;1273;23877;-76
2023/07/22 01:58:07;;;;;;;4.20;3.70;;;;;;;15.72;87.02;96161.88;108279;1279;22683;-77
2023/07/22 02:00:39;;;;;;;5.60;3.90;;;;;;;15.71;87.13;96162.36;108325;1279;23212;-76
2023/07/22 02:03:13;;;;;;;5.20;4.00;;;;;;;15.70;87.13;96163.70;108276;1279;24304;-76
2023/07/22 02:05:47;;;;;;;6.70;3.80;;;;;;;15.69;87.24;96168.85;108299;1275;22550;-76
2023/07/22 02:08:18;;;;;;;4.90;3.90;;;;;;;15.69;87.17;96171.23;108317;1275;22540;-76
2023/07/22 02:10:52;;;;;;;8.80;4.50;;;;;;;15.69;87.23;96174.36;108334;1273;22640;-76
2023/07/22 02:13:25;;;;;;;4.60;3.50;;;;;;;15.72;87.25;96187.39;108268;1279;22513;-76
2023/07/22 02:15:58;;;;;;;4.80;3.40;;;;;;;15.74;87.11;96199.20;108539;1279;22548;-75
2023/07/22 02:18:30;;;;;;;4.10;3.70;;;;;;;15.75;87.11;96201.61;108433;1279;25318;-75
2023/07/22 02:21:01;;;;;;;6.00;3.30;;;;;;;15.79;87.08;96198.41;108371;1275;22537;-76
2023/07/22 02:23:33;;;;;;;3.60;3.10;;;;;;;15.81;87.01;96196.50;108363;1279;22657;-77
2023/07/22 02:26:05;;;;;;;3.70;2.90;;;;;;;15.82;86.74;96203.77;108315;1279;22540;-77
2023/07/22 02:28:36;;;;;;;3.60;3.10;;;;;;;15.81;86.65;96208.60;108298;1279;22525;-77
2023/07/22 02:31:07;;;;;;;3.80;3.00;;;;;;;15.83;86.86;96210.33;108298;1279;22536;-76
2023/07/22 02:33:38;;;;;;;5.30;3.80;;;;;;;15.84;86.93;96207.81;108309;1272;22564;-77
2023/07/22 02:36:09;;;;;;;3.50;2.80;;;;;;;15.88;87.05;96210.98;108315;1275;22558;-76
2023/07/22 02:38:41;;;;;;;4.00;3.10;;;;;;;15.92;87.16;96213.01;108307;1275;25408;-76
2023/07/22 02:41:14;;;;;;;3.70;2.90;;;;;;;15.92;87.12;96214.08;108297;1275;22535;-76
2023/07/22 02:43:50;;;;;;;3.10;2.70;;;;;;;15.91;87.18;96216.94;108255;1279;26481;-76
2023/07/22 02:46:21;;;;;;;3.30;3.00;;;;;;;15.92;87.30;96222.95;108341;1279;22532;-76
2023/07/22 02:48:56;;;;;;;6.00;4.50;;;;;;;15.92;87.29;96221.27;108318;1279;25243;-76
2023/07/22 02:51:27;;;;;;;5.10;4.10;;;;;;;15.91;87.29;96226.63;108366;1279;24242;-76
2023/07/22 02:54:03;;;;;;;5.10;4.10;;;;;;;15.88;87.22;96223.06;108261;1279;22525;-76
2023/07/22 02:56:34;;;;;;;4.50;4.00;;;;;;;15.90;87.22;96222.36;108288;1273;22533;-76
2023/07/22 02:59:05;;;;;;;4.80;4.00;;;;;;;15.91;87.23;96228.76;108294;1273;22630;-76
2023/07/22 03:01:36;;;;;;;5.40;4.20;;;;;;;15.89;87.25;96232.88;108322;1275;22551;-76
2023/07/22 03:04:08;;;;;;;5.00;4.40;;;;;;;15.83;87.37;96238.13;108278;1279;22518;-76
2023/07/22 03:06:40;;;;;;;5.70;4.60;;;;;;;15.79;87.42;96244.10;108270;1279;22526;-76
2023/07/22 03:09:11;;;;;;;6.70;4.80;;;;;;;15.75;87.49;96243.91;108301;1275;24272;-76
2023/07/22 03:11:45;;;;;;;6.70;4.70;;;;;;;15.65;87.36;96244.14;108300;1279;22533;-76
2023/07/22 03:14:17;;;;;;;5.50;4.60;;;;;;;15.50;87.50;96241.51;108254;1272;25239;-76
2023/07/22 03:16:48;;;;;;;6.50;5.00;;;;;;;15.40;87.79;96237.44;108312;1275;23979;-76
2023/07/22 03:19:20;;;;;;;7.10;4.90;;;;;;;15.32;88.18;96237.52;108324;1279;24254;-76
2023/07/22 03:21:55;;;;;;;6.10;4.80;;;;;;;15.27;88.52;96241.58;108298;1273;22949;-75
2023/07/22 03:24:29;;;;;;;4.80;4.30;;;;;;;15.25;88.68;96243.41;108314;1279;22527;-76
2023/07/22 03:27:00;;;;;;;6.10;4.60;;;;;;;15.25;88.88;96243.10;108324;1273;22519;-76
2023/07/22 03:29:34;;;;;;;6.10;4.20;;;;;;;15.22;89.08;96247.35;108304;1268;26570;-76
2023/07/22 03:32:06;;;;;;;5.60;4.00;;;;;;;15.21;89.19;96252.18;108278;1279;25422;-76
2023/07/22 03:34:37;;;;;;;7.40;4.40;;;;;;;15.25;89.37;96250.58;108305;1278;22524;-76
2023/07/22 03:37:09;;;;;;;6.80;4.60;;;;;;;15.27;89.48;96251.89;108282;1278;22645;-76
2023/07/22 03:39:40;;;;;;;4.80;4.10;;;;;;;15.28;89.54;96246.89;108323;1278;25725;-76
2023/07/22 03:42:12;;;;;;;5.70;4.70;;;;;;;15.34;89.84;96252.35;108297;1279;22551;-76
2023/07/22 03:44:46;;;;;;;5.50;4.40;;;;;;;15.42;89.91;96247.21;108289;1279;22544;-76
2023/07/22 03:47:19;;;;;;;5.50;4.30;;;;;;;15.51;90.09;96250.15;108275;1275;22550;-76
2023/07/22 03:49:50;;;;;;;5.70;4.50;;;;;;;15.56;89.92;96249.06;108306;1279;22529;-76
2023/07/22 03:52:21;;;;;;;4.80;4.30;;;;;;;15.60;89.88;96249.41;108283;1272;22560;-76
2023/07/22 03:54:55;;;;;;;5.90;4.40;;;;;;;15.65;89.86;96245.88;108264;1278;22691;-76
2023/07/22 03:57:30;;;;;;;5.10;4.40;;;;;;;15.71;89.90;96244.89;108328;1272;25339;-76
2023/07/22 04:00:05;;;;;;;6.80;4.70;;;;;;;15.78;89.86;96246.73;108265;1278;23017;-76
2023/07/22 04:02:36;;;;;;;5.70;4.40;;;;;;;15.85;89.89;96241.95;108218;1279;22516;-76
2023/07/22 04:05:08;;;;;;;5.10;4.20;;;;;;;15.90;89.89;96244.17;108282;1279;22550;-76
2023/07/22 04:07:42;;;;;;;4.70;3.80;;;;;;;15.94;89.91;96244.95;108264;1275;22658;-76
2023/07/22 04:10:16;;;;;;;4.40;3.80;;;;;;;15.96;89.78;96242.48;108266;1278;22555;-76
2023/07/22 04:12:47;;;;;;;3.70;3.40;;;;;;;15.94;89.68;96242.59;108256;1279;22766;-76
2023/07/22 04:15:18;;;;;;;4.10;3.60;;;;;;;15.93;89.72;96244.23;108287;1275;22529;-76
2023/07/22 04:17:49;;;;;;;4.20;3.40;;;;;;;15.91;89.59;96249.33;108311;1276;22556;-76
2023/07/22 04:20:24;;;;;;;4.50;3.30;;;;;;;15.87;89.61;96250.98;108275;1273;25282;-76
2023/07/22 04:23:03;;;;;;;4.50;3.50;;;;;;;15.84;89.91;96251.92;108254;1278;22590;-76
2023/07/22 04:25:34;;;;;;;4.90;3.70;;;;;;;15.87;90.19;96258.86;108273;1278;24410;-76
2023/07/22 04:28:05;;;;;;;4.80;4.00;;;;;;;15.90;90.34;96256.31;108290;1279;24436;-76
2023/07/22 04:30:36;;;;;;;4.60;3.60;;;;;;;15.94;90.42;96251.75;108260;1273;25330;-76
2023/07/22 04:33:10;;;;;;;5.30;3.90;;;;;;;15.99;90.64;96264.98;108276;1278;25493;-76
2023/07/22 04:35:43;;;;;;;4.60;3.50;;;;;;;16.07;90.79;96268.67;108281;1279;22535;-76
2023/07/22 04:38:14;;;;;;;3.70;3.40;;;;;;;16.11;90.58;96271.58;108297;1279;22542;-76
2023/07/22 04:40:49;;;;;;;4.20;3.50;;;;;;;16.15;90.51;96278.91;108259;1269;22557;-76
2023/07/22 04:43:20;;;;;;;4.10;3.10;;;;;;;16.20;90.30;96278.65;108302;1278;22531;-76
2023/07/22 04:45:51;;;;;;;3.20;2.70;;;;;;;16.25;90.26;96282.46;108200;1279;150500;-76
2023/07/22 04:48:24;;;;;;;3.60;2.70;;;;;;;16.33;90.28;96285.52;108331;1279;22593;-76
2023/07/22 04:50:55;;;;;;;5.20;3.20;;;;;;;16.38;90.11;96286.24;108299;1279;22528;-76
2023/07/22 04:53:26;;;;;;;3.30;2.90;;;;;;;16.44;90.20;96287.17;108310;1276;22511;-76
2023/07/22 04:55:57;;;;;;;2.80;2.50;;;;;;;16.51;90.10;96291.96;108261;1273;24400;-76
2023/07/22 04:58:29;;;;;;;4.70;3.00;;;;;;;16.55;89.81;96291.19;108289;1278;22527;-76
2023/07/22 05:01:06;;;;;;;3.40;2.60;;;;;;;16.58;89.79;96291.67;108256;1279;24253;-76
2023/07/22 05:03:37;;;;;;;2.80;2.50;;;;;;;16.59;89.63;96295.48;108279;1278;22550;-76
2023/07/22 05:06:08;;;;;;;3.80;2.90;;;;;;;16.61;89.60;96297.26;108291;1279;23033;-76
2023/07/22 05:08:40;;;;;;;4.10;3.00;;;;;;;16.64;89.57;96297.34;108279;1278;22529;-76
2023/07/22 05:11:13;;;;;;;4.40;3.10;;;;;;;16.65;89.50;96297.36;108279;1278;23741;-76
2023/07/22 05:13:50;;;;;;;3.80;2.90;;;;;;;16.66;89.46;96300.16;108237;1278;22545;-76
2023/07/22 05:16:21;;;;;;;3.20;2.80;;;;;;;16.67;89.43;96303.73;108349;1279;25616;-76
2023/07/22 05:18:53;;;;;;;4.10;2.60;;;;;;;16.69;89.35;96308.48;108301;1279;22528;-76
2023/07/22 05:21:26;;;;;;;3.30;3.00;;;;;;;16.71;89.35;96307.73;108281;1278;22535;-76
2023/07/22 05:23:59;;;;;;;7.40;2.80;;;;;;;16.73;89.24;96307.31;108256;1279;22535;-76
2023/07/22 05:26:33;;;;;;;4.00;3.00;;;;;;;16.74;89.24;96310.42;108321;1276;22533;-77
2023/07/22 05:29:13;;;;;;;4.30;3.20;;;;;;;16.77;89.31;96311.47;108283;1279;22544;-77
2023/07/22 05:31:46;;;;;;;3.00;2.50;;;;;;;16.79;89.33;96309.89;108262;1273;22579;-77
2023/07/22 05:34:19;;;;;;;4.60;3.40;;;;;;;16.81;89.43;96305.38;108261;1279;22528;-77
2023/07/22 05:36:51;;;;;;;3.70;3.20;;;;;;;17.03;90.65;96313.81;108318;1273;22531;-77
2023/07/22 05:39:25;;;;;;;3.20;2.90;;;;;;;17.88;91.42;96313.40;108286;1279;22541;-77
2023/07/22 05:41:56;;;;;;;5.40;3.20;;;;;;;18.15;88.72;96321.91;108279;1279;22567;-77
2023/07/22 05:44:27;;;;;;;3.90;2.90;;;;;;;18.06;88.18;96322.84;108233;1279;22525;-76
2023/07/22 05:46:59;;;;;;;3.70;2.80;;;;;;;18.48;88.74;96321.58;108336;1279;25338;-77
2023/07/22 05:49:33;;;;;;;2.90;2.60;;;;;;;18.58;86.83;96323.59;108322;1270;24248;-76
2023/07/22 05:52:06;;;;;;;3.20;2.90;;;;;;;18.31;85.95;96322.86;108269;1273;24270;-77
2023/07/22 05:54:37;;;;;;;3.80;3.00;;;;;;;18.06;86.03;96322.92;108275;1279;22551;-77
2023/07/22 05:57:11;;;;;;;6.30;3.40;;;;;;;17.96;86.15;96330.16;108207;1279;22645;-77
2023/07/22 05:59:48;;;;;;;3.10;2.40;;;;;;;18.30;86.99;96337.80;108321;1279;22956;-75
2023/07/22 06:02:20;;;;;;;3.10;2.50;;;;;;;18.96;86.12;96328.65;108246;1279;22522;-75
2023/07/22 06:04:53;;;;;;;3.80;2.50;;;;;;;19.32;82.59;96333.09;108307;1279;22517;-74
2023/07/22 06:07:25;;;;;;;2.70;2.10;;;;;;;19.07;80.03;96332.14;108288;1273;22536;-75
2023/07/22 06:09:56;;;;;;;2.80;2.30;;;;;;;18.92;79.92;96334.08;108269;1279;22829;-75
2023/07/22 06:12:27;;;;;;;2.90;2.40;;;;;;;18.84;79.37;96333.76;108261;1279;25397;-75
2023/07/22 06:15:00;;;;;;;2.10;1.90;;;;;;;18.70;78.93;96329.89;108297;1279;22667;-75
2023/07/22 06:17:34;;;;;;;2.80;2.30;;;;;;;19.08;79.85;96325.04;108327;1272;22653;-75
2023/07/22 06:20:07;;;;;;;2.70;2.30;;;;;;;19.61;79.13;96316.23;108308;1279;22648;-75
2023/07/22 06:22:38;;;;;;;3.40;2.10;;;;;;;20.07;77.85;96315.16;108301;1279;33541;-74
2023/07/22 06:25:16;;;;;;;2.40;1.90;;;;;;;20.38;76.61;96324.92;108284;1279;22523;-74
2023/07/22 06:27:47;;;;;;;2.30;1.80;;;;;;;20.66;75.30;96332.63;108298;1275;24256;-75
2023/07/22 06:30:19;;;;;;;2.60;2.10;;;;;;;20.41;73.09;96336.62;108267;1279;24615;-75
2023/07/22 06:32:53;;;;;;;2.90;2.30;;;;;;;19.78;72.03;96340.23;108278;1274;22522;-75
2023/07/22 06:35:25;;;;;;;3.20;2.30;;;;;;;19.14;72.73;96347.63;108319;1276;22540;-75
2023/07/22 06:37:58;;;;;;;3.20;2.30;;;;;;;18.72;73.64;96360.55;108288;1274;22553;-74
2023/07/22 06:40:31;;;;;;;2.40;1.90;;;;;;;18.44;74.72;96379.81;108284;1272;22537;-74
2023/07/22 06:43:05;;;;;;;3.80;2.50;;;;;;;18.27;75.31;96388.25;108308;1272;22527;-74
2023/07/22 06:45:38;;;;;;;3.20;2.30;;;;;;;18.06;75.37;96383.05;108409;1274;22528;-76
2023/07/22 06:48:13;;;;;;;3.10;2.80;;;;;;;17.88;75.62;96383.90;108408;1279;22657;-76
2023/07/22 06:50:52;;;;;;;3.10;2.30;;;;;;;17.91;76.82;96393.05;108428;1273;25287;-77
2023/07/22 06:53:24;;;;;;;4.50;2.80;;;;;;;18.16;77.07;96398.80;108404;1279;25432;-76
2023/07/22 06:55:56;;;;;;;3.90;2.20;;;;;;;18.20;76.97;96396.96;108382;1273;23379;-76
2023/07/22 06:58:28;;;;;;;3.90;2.10;;;;;;;18.22;77.07;96395.64;108371;1279;22746;-76
2023/07/22 07:01:00;;;;;;;2.70;2.50;;;;;;;18.61;77.27;96400.92;108371;1279;22515;-74
2023/07/22 07:03:31;;;;;;;4.40;2.90;;;;;;;18.61;76.04;96408.99;108224;1279;22529;-75
2023/07/22 07:06:05;;;;;;;3.00;2.40;;;;;;;18.35;75.99;96411.34;108294;1275;25300;-74
2023/07/22 07:08:38;;;;;;;4.30;2.50;;;;;;;18.17;76.08;96413.40;108377;1279;22547;-75
2023/07/22 07:11:11;;;;;;;2.60;2.10;;;;;;;18.35;76.29;96414.80;108278;1260;24319;-75
2023/07/22 07:13:45;;;;;;;2.50;2.30;;;;;;;18.33;75.90;96419.42;108180;1279;27639;-75
2023/07/22 07:16:28;;;;;;;3.00;2.50;;;;;;;18.20;75.68;96422.34;108299;1279;24492;-75
2023/07/22 07:18:59;;;;;;;4.60;2.90;;;;;;;18.16;76.07;96420.45;108273;1279;22528;-75
2023/07/22 07:21:31;;;;;;;3.90;2.70;;;;;;;18.18;76.19;96427.94;108302;1279;22528;-76
2023/07/22 07:24:03;;;;;;;3.70;2.70;;;;;;;18.63;77.10;96430.52;108217;1273;31785;-76
2023/07/22 07:26:35;;;;;;;3.30;2.50;;;;;;;19.20;76.78;96429.91;108328;1277;22904;-76
2023/07/22 07:29:07;;;;;;;3.10;2.60;;;;;;;19.47;75.87;96429.70;108239;1279;22563;-76
2023/07/22 07:31:38;;;;;;;4.50;3.30;;;;;;;19.83;74.87;96428.46;108292;1279;22526;-76
2023/07/22 07:34:20;;;;;;;2.80;2.50;;;;;;;19.89;73.30;96433.84;108259;1278;25242;-76
2023/07/22 07:36:54;;;;;;;3.50;2.70;;;;;;;19.99;72.86;96435.51;108302;1276;22534;-76
2023/07/22 07:39:26;;;;;;;4.10;2.60;;;;;;;20.12;71.95;96434.39;108340;1273;22606;-76
2023/07/22 07:41:59;;;;;;;4.00;2.70;;;;;;;20.22;71.24;96438.56;108330;1278;23383;-76
2023/07/22 07:44:32;;;;;;;4.70;2.40;;;;;;;20.34;71.78;96437.75;108282;1278;24292;-76
2023/07/22 07:47:06;;;;;;;3.10;2.50;;;;;;;20.35;71.04;96436.70;108290;1279;24344;-76
2023/07/22 07:49:39;;;;;;;4.20;3.00;;;;;;;20.16;70.02;96437.95;108324;1279;22525;-76
2023/07/22 07:52:15;;;;;;;3.40;2.10;;;;;;;19.80;70.06;96445.82;108284;1278;22708;-76
2023/07/22 07:54:47;;;;;;;6.20;2.40;;;;;;;19.80;70.37;96451.13;108307;1273;22535;-75
2023/07/22 07:57:22;;;;;;;4.10;2.90;;;;;;;19.88;69.62;96451.96;108270;1278;22562;-76
2023/07/22 07:59:55;;;;;;;3.40;2.70;;;;;;;19.80;69.37;96450.56;108290;1278;25351;-76
2023/07/22 08:02:27;;;;;;;4.10;3.00;;;;;;;19.93;69.46;96452.63;108271;1272;22529;-75
2023/07/22 08:05:01;;;;;;;4.20;2.70;;;;;;;19.77;68.75;96458.02;108289;1279;22518;-76
2023/07/22 08:07:32;;;;;;;4.40;3.30;;;;;;;19.48;68.99;96464.55;108259;1276;22564;-76
2023/07/22 08:10:09;;;;;;;4.00;2.60;;;;;;;19.58;70.43;96469.91;108291;1278;22565;-76
2023/07/22 08:12:44;;;;;;;5.80;3.10;;;;;;;19.65;69.72;96474.05;108261;1272;22534;-76
2023/07/22 08:15:18;;;;;;;3.80;3.00;;;;;;;19.46;70.03;96483.23;108266;1279;23011;-76
2023/07/22 08:17:50;;;;;;;3.60;2.80;;;;;;;19.22;70.01;96482.86;108314;1279;22547;-76
2023/07/22 08:20:23;;;;;;;4.10;3.00;;;;;;;18.99;70.42;96487.58;108159;1277;22527;-76
2023/07/22 08:22:57;;;;;;;2.60;2.40;;;;;;;18.80;70.71;96493.09;108161;1279;25262;-76
2023/07/22 08:25:29;;;;;;;4.90;2.90;;;;;;;18.70;70.89;96491.40;108158;1279;24229;-76
2023/07/22 08:28:00;;;;;;;4.40;2.80;;;;;;;18.60;71.19;96496.00;108216;1279;22517;-76
2023/07/22 08:30:33;;;;;;;3.60;3.10;;;;;;;18.52;71.42;96505.93;108177;1271;22545;-76
2023/07/22 08:33:06;;;;;;;3.50;2.60;;;;;;;18.46;71.47;96500.73;108181;1276;22524;-76
2023/07/22 08:35:42;;;;;;;3.90;2.70;;;;;;;18.34;71.21;96498.83;108194;1277;22535;-76
2023/07/22 08:38:24;;;;;;;4.30;3.40;;;;;;;18.56;71.98;96509.85;108193;1279;25362;-76
2023/07/22 08:40:56;;;;;;;3.90;2.60;;;;;;;19.13;71.86;96510.77;108219;1279;22536;-76
2023/07/22 08:43:30;;;;;;;3.10;2.80;;;;;;;19.36;70.73;96515.70;108162;1272;24421;-76
2023/07/22 08:46:03;;;;;;;5.30;2.70;;;;;;;19.52;70.54;96518.14;108137;1279;22573;-76
2023/07/22 08:48:35;;;;;;;3.60;2.70;;;;;;;19.90;70.90;96519.35;108192;1279;22577;-76
2023/07/22 08:51:08;;;;;;;3.20;2.50;;;;;;;20.01;69.34;96516.05;108185;1279;26424;-76
2023/07/22 08:53:40;;;;;;;3.30;2.50;;;;;;;19.83;68.04;96521.83;108186;1279;25301;-76
2023/07/22 08:56:13;;;;;;;4.40;2.80;;;;;;;19.90;68.90;96520.73;108169;1279;26462;-76
2023/07/22 08:58:47;;;;;;;3.10;2.70;;;;;;;20.07;68.64;96520.23;108135;1279;22559;-76
2023/07/22 09:01:19;;;;;;;2.80;2.60;;;;;;;20.05;68.36;96518.92;108150;1279;22528;-76
2023/07/22 09:03:53;;;;;;;4.90;2.70;;;;;;;20.19;68.86;96520.94;108148;1279;22590;-76
2023/07/22 09:06:25;;;;;;;2.60;2.40;;;;;;;20.30;68.06;96516.20;108101;1272;25395;-76
2023/07/22 09:08:57;;;;;;;4.30;3.10;;;;;;;20.29;67.67;96530.00;108211;1279;22542;-76
2023/07/22 09:11:34;;;;;;;3.20;2.60;;;;;;;20.37;67.82;96532.61;108208;1277;22534;-77
2023/07/22 09:14:06;;;;;;;5.10;2.90;;;;;;;20.48;67.58;96536.54;108145;1276;22528;-76
2023/07/22 09:16:39;;;;;;;4.80;3.40;;;;;;;20.50;66.99;96541.91;108263;1272;25444;-76
2023/07/22 09:19:11;;;;;;;3.10;2.60;;;;;;;20.27;66.00;96548.64;108173;1279;24245;-76
2023/07/22 09:21:45;;;;;;;3.20;2.30;;;;;;;20.10;66.46;96548.37;108181;1267;23873;-76
2023/07/22 09:24:25;;;;;;;3.20;2.60;;;;;;;19.93;65.63;96550.35;108146;1272;22517;-76
2023/07/22 09:27:00;;;;;;;2.80;2.40;;;;;;;19.63;65.58;96556.14;108167;1279;22553;-75
2023/07/22 09:29:40;;;;;;;4.80;3.30;;;;;;;19.51;65.96;96548.67;108287;1279;25784;-75
2023/07/22 09:32:14;;;;;;;3.60;2.60;;;;;;;19.37;65.77;96548.22;108262;1272;26013;-76
2023/07/22 09:34:58;;;;;;;3.10;2.40;;;;;;;19.43;66.33;96550.42;108186;1279;23180;-76
2023/07/22 09:37:41;;;;;;;4.10;2.50;;;;;;;19.55;66.47;96557.56;108185;1272;25906;-76
2023/07/22 09:40:21;;;;;;;2.50;2.30;;;;;;;19.64;66.23;96554.98;108160;1279;22662;-76
2023/07/22 09:42:54;;;;;;;4.30;2.30;;;;;;;19.70;66.13;96548.35;108178;1279;23310;-76
2023/07/22 09:45:27;;;;;;;4.40;2.30;;;;;;;19.77;66.07;96552.64;108149;1279;26667;-76
2023/07/22 09:47:59;;;;;;;6.80;3.00;;;;;;;19.91;66.28;96555.67;108169;1279;26576;-76
2023/07/22 09:50:31;;;;;;;3.40;2.10;;;;;;;20.04;66.32;96550.45;108193;1272;25283;-75
2023/07/22 09:53:05;;;;;;;4.60;2.80;;;;;;;20.15;65.72;96546.63;108160;1273;22527;-76
2023/07/22 09:55:38;;;;;;;3.10;2.50;;;;;;;20.25;65.48;96543.86;108179;1279;22528;-75
2023/07/22 09:58:10;;;;;;;3.20;2.50;;;;;;;20.30;64.84;96540.11;108174;1272;22543;-76
2023/07/22 10:00:45;;;;;;;3.70;2.50;;;;;;;20.39;64.85;96537.42;108165;1276;22559;-76
2023/07/22 10:03:20;;;;;;;2.70;2.30;;;;;;;20.46;64.21;96539.18;108190;1279;22543;-76
2023/07/22 10:05:51;;;;;;;2.30;2.10;;;;;;;20.48;64.15;96538.32;108151;1272;22543;-76
2023/07/22 10:08:27;;;;;;;2.60;2.20;;;;;;;20.48;63.42;96538.91;108192;1279;22533;-76
2023/07/22 10:11:04;;;;;;;4.40;2.60;;;;;;;20.45;63.48;96540.63;108175;1272;22532;-75
2023/07/22 10:13:37;;;;;;;5.60;2.40;;;;;;;20.58;63.93;96542.36;108153;1279;22528;-76
2023/07/22 10:16:09;;;;;;;5.10;2.90;;;;;;;20.81;64.17;96541.73;108191;1279;24774;-76
2023/07/22 10:18:44;;;;;;;4.50;2.70;;;;;;;20.91;63.78;96541.52;108180;1272;22528;-76
2023/07/22 10:21:17;;;;;;;3.40;2.00;;;;;;;20.94;62.83;96534.81;108180;1279;24232;-76
2023/07/22 10:23:50;;;;;;;2.60;1.90;;;;;;;20.77;61.73;96537.95;108180;1272;22538;-76
2023/07/22 10:26:22;;;;;;;2.20;2.00;;;;;;;20.67;61.75;96542.13;108191;1279;22565;-76
2023/07/22 10:28:56;;;;;;;2.70;2.20;;;;;;;20.68;62.07;96551.23;108144;1279;22540;-76
2023/07/22 10:31:31;;;;;;;3.80;2.20;;;;;;;20.78;62.25;96554.43;108199;1279;22542;-76
2023/07/22 10:34:06;;;;;;;3.40;1.90;;;;;;;20.84;61.59;96550.67;108173;1269;22541;-76
2023/07/22 10:36:38;;;;;;;3.30;1.90;;;;;;;20.77;60.72;96546.55;108186;1279;22592;-76
2023/07/22 10:39:12;;;;;;;3.10;2.00;;;;;;;20.57;60.48;96556.34;108180;1279;22567;-75
2023/07/22 10:41:50;;;;;;;3.90;2.50;;;;;;;20.43;60.69;96551.58;108197;1272;22525;-76
2023/07/22 10:44:21;;;;;;;3.20;2.20;;;;;;;20.39;61.20;96556.73;108180;1279;24984;-76
2023/07/22 10:47:00;;;;;;;2.80;2.20;;;;;;;20.35;61.25;96559.32;108206;1272;22939;-76
2023/07/22 10:49:46;;;;;;;3.40;2.00;;;;;;;20.48;61.82;96551.62;108137;1279;22721;-76
2023/07/22 10:52:43;;;;;;;2.10;1.90;;;;;;;20.67;61.67;96549.85;108118;1279;22634;-76
2023/07/22 10:55:20;;;;;;;4.00;2.40;;;;;;;20.78;61.29;96552.50;108205;1279;25233;-76
2023/07/22 10:57:56;;;;;;;2.30;2.10;;;;;;;20.87;61.25;96549.27;108165;1279;22535;-75
2023/07/22 11:00:31;;;;;;;4.70;2.60;;;;;;;20.94;60.86;96543.38;108191;1279;22528;-76
2023/07/22 11:03:18;;;;;;;2.60;2.10;;;;;;;20.96;60.90;96546.88;108154;1279;22532;-76
2023/07/22 11:05:55;;;;;;;2.60;2.20;;;;;;;20.89;60.57;96546.17;108176;1279;22528;-76
2023/07/22 11:08:41;;;;;;;3.10;2.50;;;;;;;20.87;60.52;96554.96;108172;1272;22582;-76
2023/07/22 11:11:20;;;;;;;2.80;2.30;;;;;;;20.87;60.90;96553.67;108220;1272;25398;-76
2023/07/22 11:13:53;;;;;;;3.70;2.30;;;;;;;20.91;60.90;96550.30;108113;1279;22657;-76
2023/07/22 11:16:29;;;;;;;4.20;2.60;;;;;;;20.85;60.63;96546.61;108192;1279;22520;-76
2023/07/22 11:19:01;;;;;;;2.60;2.20;;;;;;;20.73;60.65;96552.69;108217;1269;22619;-76
2023/07/22 11:21:34;;;;;;;2.90;2.40;;;;;;;20.62;60.67;96547.00;108170;1279;24227;-76
2023/07/22 11:24:07;;;;;;;5.00;3.10;;;;;;;20.60;60.82;96541.17;108168;1279;22538;-76
2023/07/22 11:26:41;;;;;;;3.20;2.50;;;;;;;20.63;61.15;96546.19;108298;1279;22772;-76
2023/07/22 11:29:15;;;;;;;2.80;2.20;;;;;;;20.66;61.06;96544.64;108348;1279;22533;-77
2023/07/22 11:31:48;;;;;;;4.30;2.90;;;;;;;20.73;60.94;96542.55;108222;1277;25278;-76
2023/07/22 11:34:21;;;;;;;5.20;2.70;;;;;;;20.88;61.24;96545.91;108183;1279;22524;-76
2023/07/22 11:36:54;;;;;;;3.50;2.50;;;;;;;21.00;60.92;96545.00;108208;1279;22541;-76
2023/07/22 11:39:31;;;;;;;2.90;2.40;;;;;;;21.05;60.59;96542.52;108197;1279;22546;-76
2023/07/22 11:42:06;;;;;;;3.00;2.40;;;;;;;21.18;60.63;96538.96;108185;1279;25280;-76
2023/07/22 11:44:40;;;;;;;3.00;2.60;;;;;;;21.33;60.05;96543.35;108217;1269;24277;-75
2023/07/22 11:47:13;;;;;;;3.00;2.50;;;;;;;21.52;60.79;96540.48;108161;1277;22945;-76
2023/07/22 11:49:51;;;;;;;2.90;2.20;;;;;;;21.76;61.29;96541.88;108181;1279;22533;-77
2023/07/22 11:52:23;;;;;;;2.80;2.30;;;;;;;21.87;61.62;96544.75;108206;1279;22531;-76